Observation data for Olton on 04/23/2019      Previous  Date  Next       Current Mesonet Observations  Soil Data  Daily Summary Page  Observations in Plain Language
KONS 230500Z 03013KT 12/11 A3007 RMK A01 T01180105  RH  094%=      5-min Rain = 0
KONS 230505Z 03013KT 12/11 A3007 RMK A01 T01180105  RH  094%=      5-min Rain = 0
KONS 230510Z 04014KT 12/11 A3007 RMK A01 T01180105  RH  094%=      5-min Rain = 0
KONS 230515Z 04013G18KT 12/11 A3007 RMK A01 T01180105  RH  093%=      5-min Rain = 0.01
KONS 230520Z 04013KT 12/11 A3007 RMK A01 T01180105  RH  094%=      5-min Rain = 0.04
KONS 230525Z 05012KT 12/11 A3008 RMK A01 T01180105  RH  094%=      5-min Rain = 0.01
KONS 230530Z 05013G18KT 12/11 A3007 RMK A01 T01170106  RH  094%=      5-min Rain = 0
KONS 230535Z 04013G18KT 12/11 A3007 RMK A01 T01170106  RH  094%=      5-min Rain = 0
KONS 230540Z 04014G21KT 12/11 A3007 RMK A01 T01170106  RH  094%=      5-min Rain = 0.01
KONS 230545Z 03012KT 12/11 A3007 RMK A01 T01170106  RH  094%=      5-min Rain = 0
KONS 230550Z 02012KT 12/11 A3007 RMK A01 T01160105  RH  094%=      5-min Rain = 0
KONS 230555Z 02012G18KT 12/11 A3007 RMK A01 T01160105  RH  095%=      5-min Rain = 0
KONS 230600Z 03012KT 12/11 A3008 RMK A01 T01150105  RH  095%=      5-min Rain = 0.03
KONS 230605Z 04011KT 12/11 A3008 RMK A01 T01150105  RH  095%=      5-min Rain = 0.07
KONS 230610Z 03011G16KT 11/10 A3008 RMK A01 T01140104  RH  095%=      5-min Rain = 0.04
KONS 230615Z 04014G19KT 11/10 A3007 RMK A01 T01140104  RH  095%=      5-min Rain = 0.06
KONS 230620Z 04017KT 11/10 A3006 RMK A01 T01140104  RH  095%=      5-min Rain = 0.03
KONS 230625Z 04015KT 11/10 A3007 RMK A01 T01140104  RH  095%=      5-min Rain = 0
KONS 230630Z 04012G17KT 11/10 A3006 RMK A01 T01140104  RH  095%=      5-min Rain = 0.02
KONS 230635Z 04016G21KT 11/10 A3005 RMK A01 T01140104  RH  095%=      5-min Rain = 0
KONS 230640Z 04015G20KT 11/10 A3005 RMK A01 T01140104  RH  095%=      5-min Rain = 0
KONS 230645Z 03014G19KT 11/10 A3005 RMK A01 T01140104  RH  095%=      5-min Rain = 0
KONS 230650Z 02012KT 11/10 A3006 RMK A01 T01130104  RH  096%=      5-min Rain = 0
KONS 230655Z 03012KT 11/10 A3006 RMK A01 T01130104  RH  096%=      5-min Rain = 0
KONS 230700Z 03013KT 11/10 A3006 RMK A01 T01130104  RH  096%=      5-min Rain = 0
KONS 230705Z 04014KT 11/10 A3006 RMK A01 T01130104  RH  096%=      5-min Rain = 0
KONS 230710Z 04014KT 11/10 A3005 RMK A01 T01130104  RH  096%=      5-min Rain = 0.01
KONS 230715Z 04016KT 11/10 A3005 RMK A01 T01130104  RH  096%=      5-min Rain = 0.01
KONS 230720Z 04017G22KT 11/10 A3004 RMK A01 T01120103  RH  096%=      5-min Rain = 0.01
KONS 230725Z 03017G22KT 11/10 A3004 RMK A01 T01120103  RH  096%=      5-min Rain = 0
KONS 230730Z 03015G20KT 11/10 A3004 RMK A01 T01120103  RH  096%=      5-min Rain = 0.01
KONS 230735Z 03014G20KT 11/10 A3004 RMK A01 T01120103  RH  096%=      5-min Rain = 0
KONS 230740Z 03013G18KT 11/10 A3004 RMK A01 T01120103  RH  096%=      5-min Rain = 0.01
KONS 230745Z 03012G17KT 11/10 A3005 RMK A01 T01120103  RH  096%=      5-min Rain = 0
KONS 230750Z 03008KT 11/10 A3006 RMK A01 T01120104  RH  096%=      5-min Rain = 0
KONS 230755Z 03008KT 11/10 A3007 RMK A01 T01120104  RH  096%=      5-min Rain = 0.03
KONS 230800Z 01010KT 11/10 A3006 RMK A01 T01120103  RH  096%=      5-min Rain = 0.03
KONS 230805Z 02009KT 11/10 A3006 RMK A01 T01120103  RH  096%=      5-min Rain = 0.04
KONS 230810Z 02009KT 11/10 A3006 RMK A01 T01120103  RH  096%=      5-min Rain = 0.01
KONS 230815Z 02008KT 11/10 A3006 RMK A01 T01120103  RH  096%=      5-min Rain = 0.01
KONS 230820Z 01008KT 11/10 A3006 RMK A01 T01120103  RH  096%=      5-min Rain = 0.02
KONS 230825Z 01008KT 11/10 A3006 RMK A01 T01120103  RH  096%=      5-min Rain = 0.01
KONS 230830Z 01009KT 11/10 A3005 RMK A01 T01120103  RH  096%=      5-min Rain = 0.01
KONS 230835Z 01009KT 11/10 A3005 RMK A01 T01120104  RH  096%=      5-min Rain = 0.01
KONS 230840Z 02010KT 11/10 A3005 RMK A01 T01120104  RH  096%=      5-min Rain = 0.01
KONS 230845Z 02010KT 11/10 A3005 RMK A01 T01120104  RH  096%=      5-min Rain = 0
KONS 230850Z 02011KT 11/10 A3005 RMK A01 T01120104  RH  096%=      5-min Rain = 0
KONS 230855Z 03011G16KT 11/10 A3005 RMK A01 T01120104  RH  096%=      5-min Rain = 0
KONS 230900Z 03012KT 11/10 A3005 RMK A01 T01120104  RH  096%=      5-min Rain = 0.01
KONS 230905Z 03009KT 11/10 A3005 RMK A01 T01120104  RH  096%=      5-min Rain = 0.01
KONS 230910Z 04009G14KT 11/11 A3005 RMK A01 T01130105  RH  096%=      5-min Rain = 0.01
KONS 230915Z 03009G15KT 11/10 A3005 RMK A01 T01120104  RH  096%=      5-min Rain = 0
KONS 230920Z 01007KT 11/10 A3005 RMK A01 T01120104  RH  096%=      5-min Rain = 0.01
KONS 230925Z 01007KT 11/10 A3005 RMK A01 T01120104  RH  096%=      5-min Rain = 0.01
KONS 230930Z 00007KT 11/11 A3005 RMK A01 T01130105  RH  096%=      5-min Rain = 0.03
KONS 230935Z 34007KT 11/10 A3005 RMK A01 T01120104  RH  096%=      5-min Rain = 0.02
KONS 230940Z 34008KT 11/10 A3005 RMK A01 T01120104  RH  096%=      5-min Rain = 0.02
KONS 230945Z 33007KT 11/10 A3005 RMK A01 T01120104  RH  096%=      5-min Rain = 0.02
KONS 230950Z 32007KT 11/10 A3006 RMK A01 T01120104  RH  097%=      5-min Rain = 0.02
KONS 230955Z 30007KT 11/10 A3007 RMK A01 T01120104  RH  097%=      5-min Rain = 0.02
KONS 231000Z 30008KT 11/10 A3007 RMK A01 T01120104  RH  097%=      5-min Rain = 0.03
KONS 231005Z 30008KT 11/10 A3008 RMK A01 T01120104  RH  097%=      5-min Rain = 0.03
KONS 231010Z 29009KT 11/10 A3008 RMK A01 T01110103  RH  097%=      5-min Rain = 0.02
KONS 231015Z 30008KT 11/10 A3008 RMK A01 T01110103  RH  097%=      5-min Rain = 0.01
KONS 231020Z 31009KT 11/10 A3008 RMK A01 T01110103  RH  097%=      5-min Rain = 0.01
KONS 231025Z 35010G15KT 11/10 A3006 RMK A01 T01100102  RH  097%=      5-min Rain = 0.01
KONS 231030Z 01018KT 11/10 A3002 RMK A01 T01090101  RH  097%=      5-min Rain = 0.01
KONS 231035Z 00018G23KT 11/10 A30 RMK A01 T01080100  RH  097%=      5-min Rain = 0
KONS 231040Z 00019KT 11/10 A30 RMK A01 T01070100  RH  097%=      5-min Rain = 0.01
KONS 231045Z 01016G21KT 11/10 A3001 RMK A01 T01070099  RH  097%=      5-min Rain = 0
KONS 231050Z 01015G21KT 11/10 A3001 RMK A01 T01070099  RH  097%=      5-min Rain = 0
KONS 231055Z 01015KT 11/10 A3001 RMK A01 T01060099  RH  097%=      5-min Rain = 0
KONS 231100Z 35015KT 11/10 A3003 RMK A01 T01060099  RH  097%=      5-min Rain = 0
KONS 231105Z 33014KT 11/10 A3005 RMK A01 T01070100  RH  097%=      5-min Rain = 0
KONS 231110Z 33012G18KT 11/10 A3005 RMK A01 T01070100  RH  097%=      5-min Rain = 0
KONS 231115Z 34014KT 11/10 A3005 RMK A01 T01080100  RH  097%=      5-min Rain = 0
KONS 231120Z 34014KT 11/10 A3005 RMK A01 T01080100  RH  097%=      5-min Rain = 0
KONS 231125Z 34012KT 11/10 A3006 RMK A01 T01080101  RH  097%=      5-min Rain = 0
KONS 231130Z 34010KT 11/10 A3007 RMK A01 T01090101  RH  096%=      5-min Rain = 0
KONS 231135Z 33009KT 11/10 A3008 RMK A01 T01090101  RH  096%=      5-min Rain = 0
KONS 231140Z 33008KT 11/10 A3009 RMK A01 T01090100  RH  096%=      5-min Rain = 0
KONS 231145Z 33008KT 11/10 A3009 RMK A01 T01090100  RH  096%=      5-min Rain = 0
KONS 231150Z 33007KT 11/10 A3009 RMK A01 T01090100  RH  096%=      5-min Rain = 0
KONS 231155Z 34008KT 11/10 A3009 RMK A01 T01090099  RH  096%=      5-min Rain = 0
KONS 231200Z 34010KT 11/10 A3008 RMK A01 T01080099  RH  096%=      5-min Rain = 0
KONS 231205Z 35010KT 11/10 A3008 RMK A01 T01080099  RH  096%=      5-min Rain = 0
KONS 231210Z 35013KT 11/10 A3007 RMK A01 T01080099  RH  096%=      5-min Rain = 0
KONS 231215Z 36014KT 11/10 A3006 RMK A01 T01080099  RH  095%=      5-min Rain = 0
KONS 231220Z 35014KT 11/10 A3007 RMK A01 T01090099  RH  095%=      5-min Rain = 0
KONS 231225Z 35013KT 11/10 A3007 RMK A01 T01090099  RH  095%=      5-min Rain = 0
KONS 231230Z 36015KT 11/10 A3007 RMK A01 T01090099  RH  095%=      5-min Rain = 0
KONS 231235Z 36013KT 11/10 A3007 RMK A01 T01090099  RH  095%=      5-min Rain = 0
KONS 231240Z 00012KT 11/10 A3008 RMK A01 T01100099  RH  095%=      5-min Rain = 0
KONS 231245Z 36012KT 11/10 A3008 RMK A01 T01090099  RH  095%=      5-min Rain = 0
KONS 231250Z 00011KT 11/10 A3008 RMK A01 T01100099  RH  095%=      5-min Rain = 0
KONS 231255Z 01011KT 11/10 A3008 RMK A01 T01100099  RH  095%=      5-min Rain = 0
KONS 231300Z 01013KT 11/10 A3007 RMK A01 T01100099  RH  095%=      5-min Rain = 0
KONS 231305Z 01013KT 11/10 A3008 RMK A01 T01110100  RH  095%=      5-min Rain = 0
KONS 231310Z 02016G22KT 11/10 A3006 RMK A01 T01110100  RH  095%=      5-min Rain = 0
KONS 231315Z 02019G24KT 11/10 A3005 RMK A01 T01120101  RH  094%=      5-min Rain = 0
KONS 231320Z 02017G23KT 11/10 A3005 RMK A01 T01130101  RH  094%=      5-min Rain = 0
KONS 231325Z 03017G22KT 11/10 A3005 RMK A01 T01130101  RH  094%=      5-min Rain = 0
KONS 231330Z 03014G21KT 11/10 A3006 RMK A01 T01140102  RH  094%=      5-min Rain = 0
KONS 231335Z 03015KT 12/10 A3006 RMK A01 T01150104  RH  094%=      5-min Rain = 0
KONS 231340Z 03016G21KT 12/11 A3005 RMK A01 T01170105  RH  094%=      5-min Rain = 0
KONS 231345Z 03015G20KT 12/11 A3006 RMK A01 T01170106  RH  094%=      5-min Rain = 0
KONS 231350Z 03014KT 12/11 A3006 RMK A01 T01190107  RH  094%=      5-min Rain = 0
KONS 231355Z 03015G21KT 12/11 A3006 RMK A01 T01200108  RH  094%=      5-min Rain = 0
KONS 231400Z 03017G23KT 12/11 A3006 RMK A01 T01190107  RH  093%=      5-min Rain = 0
KONS 231405Z 03016G21KT 12/11 A3007 RMK A01 T01200106  RH  093%=      5-min Rain = 0
KONS 231410Z 03015G20KT 12/11 A3007 RMK A01 T01200107  RH  093%=      5-min Rain = 0
KONS 231415Z 02014G19KT 12/11 A3007 RMK A01 T01200107  RH  093%=      5-min Rain = 0
KONS 231420Z 02014G19KT 12/11 A3008 RMK A01 T01210107  RH  093%=      5-min Rain = 0
KONS 231425Z 02013KT 12/11 A3008 RMK A01 T01200106  RH  092%=      5-min Rain = 0
KONS 231430Z 02010G15KT 12/11 A3009 RMK A01 T01210106  RH  092%=      5-min Rain = 0
KONS 231435Z 02013KT 12/11 A3009 RMK A01 T01220107  RH  092%=      5-min Rain = 0
KONS 231440Z 02013G18KT 12/11 A3009 RMK A01 T01230107  RH  092%=      5-min Rain = 0
KONS 231445Z 02013KT 12/11 A3009 RMK A01 T01230106  RH  091%=      5-min Rain = 0
KONS 231450Z 02011KT 12/11 A3009 RMK A01 T01230107  RH  091%=      5-min Rain = 0
KONS 231455Z 03012KT 12/11 A3009 RMK A01 T01240108  RH  091%=      5-min Rain = 0
KONS 231500Z 02010KT 12/11 A3009 RMK A01 T01240108  RH  091%=      5-min Rain = 0
KONS 231505Z 03012G17KT 13/11 A3009 RMK A01 T01250109  RH  091%=      5-min Rain = 0
KONS 231510Z 02013KT 12/11 A3009 RMK A01 T01240107  RH  091%=      5-min Rain = 0
KONS 231515Z 03013G19KT 12/11 A3009 RMK A01 T01240106  RH  091%=      5-min Rain = 0
KONS 231520Z 02012G18KT 12/11 A3009 RMK A01 T01240107  RH  091%=      5-min Rain = 0
KONS 231525Z 02012KT 12/11 A3009 RMK A01 T01240108  RH  091%=      5-min Rain = 0
KONS 231530Z 02013G18KT 12/11 A301 RMK A01 T01230107  RH  092%=      5-min Rain = 0
KONS 231535Z 02015KT 12/11 A301 RMK A01 T01220106  RH  092%=      5-min Rain = 0
KONS 231540Z 02012G18KT 12/11 A301 RMK A01 T01210106  RH  092%=      5-min Rain = 0
KONS 231545Z 03015KT 12/11 A301 RMK A01 T01190105  RH  093%=      5-min Rain = 0
KONS 231550Z 03014KT 12/11 A301 RMK A01 T01190106  RH  093%=      5-min Rain = 0
KONS 231555Z 03015KT 12/11 A301 RMK A01 T01190106  RH  093%=      5-min Rain = 0
KONS 231600Z 03013KT 12/11 A301 RMK A01 T01210108  RH  093%=      5-min Rain = 0
KONS 231605Z 04014G19KT 12/11 A301 RMK A01 T01220109  RH  093%=      5-min Rain = 0
KONS 231610Z 04016KT 12/11 A301 RMK A01 T01210107  RH  093%=      5-min Rain = 0
KONS 231615Z 04014KT 12/11 A301 RMK A01 T01200106  RH  093%=      5-min Rain = 0
KONS 231620Z 04015G20KT 12/11 A301 RMK A01 T01190105  RH  093%=      5-min Rain = 0
KONS 231625Z 04015G21KT 12/11 A301 RMK A01 T01190106  RH  093%=      5-min Rain = 0
KONS 231630Z 04017KT 12/11 A3009 RMK A01 T01180105  RH  093%=      5-min Rain = 0
KONS 231635Z 04017KT 12/11 A3009 RMK A01 T01190105  RH  093%=      5-min Rain = 0
KONS 231640Z 04014G19KT 12/11 A3009 RMK A01 T01190106  RH  093%=      5-min Rain = 0
KONS 231645Z 04017KT 12/11 A3009 RMK A01 T01180105  RH  094%=      5-min Rain = 0
KONS 231650Z 04016G21KT 12/11 A3008 RMK A01 T01190108  RH  094%=      5-min Rain = 0
KONS 231655Z 04017KT 12/11 A3008 RMK A01 T01200108  RH  094%=      5-min Rain = 0
KONS 231700Z 04014G19KT 12/11 A3008 RMK A01 T01200108  RH  094%=      5-min Rain = 0
KONS 231705Z 04013G19KT 12/11 A3009 RMK A01 T01200108  RH  094%=      5-min Rain = 0
KONS 231710Z 04013G19KT 12/11 A3009 RMK A01 T01190107  RH  094%=      5-min Rain = 0
KONS 231715Z 03012KT 12/11 A301 RMK A01 T01190106  RH  094%=      5-min Rain = 0
KONS 231720Z 03012KT 12/11 A301 RMK A01 T01180105  RH  093%=      5-min Rain = 0
KONS 231725Z 03013KT 12/10 A3011 RMK A01 T01170104  RH  093%=      5-min Rain = 0
KONS 231730Z 02012KT 12/10 A3011 RMK A01 T01170104  RH  093%=      5-min Rain = 0
KONS 231735Z 03012KT 12/10 A3011 RMK A01 T01170104  RH  093%=      5-min Rain = 0
KONS 231740Z 03012KT 12/11 A301 RMK A01 T01180105  RH  093%=      5-min Rain = 0
KONS 231745Z 02013KT 12/10 A301 RMK A01 T01170104  RH  093%=      5-min Rain = 0
KONS 231750Z 02014KT 12/10 A301 RMK A01 T01170104  RH  094%=      5-min Rain = 0
KONS 231755Z 02014KT 12/10 A3009 RMK A01 T01160104  RH  094%=      5-min Rain = 0
KONS 231800Z 02016KT 12/10 A3009 RMK A01 T01160104  RH  094%=      5-min Rain = 0
KONS 231805Z 03015KT 12/10 A3009 RMK A01 T01150103  RH  094%=      5-min Rain = 0
KONS 231810Z 03016KT 12/10 A3008 RMK A01 T01160104  RH  094%=      5-min Rain = 0
KONS 231815Z 03014G19KT 12/10 A3008 RMK A01 T01150103  RH  094%=      5-min Rain = 0
KONS 231820Z 02014KT 12/10 A3009 RMK A01 T01160103  RH  093%=      5-min Rain = 0
KONS 231825Z 02014KT 11/10 A3009 RMK A01 T01140100  RH  093%=      5-min Rain = 0
KONS 231830Z 02015KT 11/10 A3009 RMK A01 T01140099  RH  092%=      5-min Rain = 0
KONS 231835Z 03013KT 12/10 A3009 RMK A01 T01150101  RH  093%=      5-min Rain = 0
KONS 231840Z 02014KT 12/10 A3009 RMK A01 T01150100  RH  092%=      5-min Rain = 0
KONS 231845Z 02013G18KT 12/10 A3009 RMK A01 T01150100  RH  092%=      5-min Rain = 0
KONS 231850Z 03012KT 12/10 A3009 RMK A01 T01170102  RH  092%=      5-min Rain = 0
KONS 231855Z 03012KT 12/10 A3009 RMK A01 T01160101  RH  092%=      5-min Rain = 0
KONS 231900Z 03012KT 12/10 A3009 RMK A01 T01160100  RH  092%=      5-min Rain = 0
KONS 231905Z 03012KT 12/10 A3009 RMK A01 T01160101  RH  092%=      5-min Rain = 0
KONS 231910Z 03012G17KT 12/10 A3009 RMK A01 T01160101  RH  092%=      5-min Rain = 0
KONS 231915Z 03012KT 12/10 A3009 RMK A01 T01150099  RH  092%=      5-min Rain = 0
KONS 231920Z 03012KT 12/10 A3009 RMK A01 T01150100  RH  092%=      5-min Rain = 0
KONS 231925Z 03012KT 12/10 A3009 RMK A01 T01150100  RH  092%=      5-min Rain = 0
KONS 231930Z 03011KT 12/10 A3009 RMK A01 T01170101  RH  091%=      5-min Rain = 0
KONS 231935Z 03012KT 12/10 A3009 RMK A01 T01170099  RH  090%=      5-min Rain = 0
KONS 231940Z 03010G15KT 12/10 A3009 RMK A01 T01170100  RH  090%=      5-min Rain = 0
KONS 231945Z 03012KT 12/10 A3009 RMK A01 T01180100  RH  090%=      5-min Rain = 0
KONS 231950Z 04010G15KT 12/10 A3008 RMK A01 T01180100  RH  090%=      5-min Rain = 0
KONS 231955Z 03011KT 12/10 A3008 RMK A01 T01190099  RH  089%=      5-min Rain = 0
KONS 232000Z 02011KT 12/10 A3008 RMK A01 T01180098  RH  089%=      5-min Rain = 0
KONS 232005Z 02010KT 12/10 A3008 RMK A01 T01170098  RH  089%=      5-min Rain = 0
KONS 232010Z 03011KT 12/10 A3008 RMK A01 T01180098  RH  089%=      5-min Rain = 0
KONS 232015Z 03011KT 12/10 A3008 RMK A01 T01170097  RH  089%=      5-min Rain = 0
KONS 232020Z 03010KT 12/10 A3008 RMK A01 T01190098  RH  088%=      5-min Rain = 0
KONS 232025Z 03009KT 12/10 A3008 RMK A01 T01210100  RH  088%=      5-min Rain = 0
KONS 232030Z 02012KT 12/10 A3008 RMK A01 T01200098  RH  088%=      5-min Rain = 0
KONS 232035Z 02011KT 12/10 A3008 RMK A01 T01190098  RH  088%=      5-min Rain = 0
KONS 232040Z 03011KT 12/10 A3008 RMK A01 T01180098  RH  088%=      5-min Rain = 0
KONS 232045Z 02010KT 12/10 A3008 RMK A01 T01190098  RH  088%=      5-min Rain = 0
KONS 232050Z 02011KT 12/10 A3008 RMK A01 T01190098  RH  089%=      5-min Rain = 0
KONS 232055Z 02011KT 12/10 A3008 RMK A01 T01170097  RH  089%=      5-min Rain = 0
KONS 232100Z 02012KT 12/10 A3007 RMK A01 T01170097  RH  089%=      5-min Rain = 0
KONS 232105Z 02011KT 12/10 A3007 RMK A01 T01170098  RH  089%=      5-min Rain = 0
KONS 232110Z 01011KT 12/10 A3007 RMK A01 T01170097  RH  089%=      5-min Rain = 0
KONS 232115Z 01010KT 12/10 A3007 RMK A01 T01180097  RH  088%=      5-min Rain = 0
KONS 232120Z 02009KT 12/10 A3007 RMK A01 T01210099  RH  088%=      5-min Rain = 0
KONS 232125Z 03011KT 12/10 A3007 RMK A01 T01210098  RH  087%=      5-min Rain = 0
KONS 232130Z 01012KT 12/10 A3007 RMK A01 T01200098  RH  088%=      5-min Rain = 0
KONS 232135Z 01012KT 12/10 A3006 RMK A01 T01180097  RH  088%=      5-min Rain = 0
KONS 232140Z 02010KT 12/10 A3006 RMK A01 T01180097  RH  089%=      5-min Rain = 0
KONS 232145Z 01010KT 12/10 A3006 RMK A01 T01190096  RH  087%=      5-min Rain = 0
KONS 232150Z 01011KT 12/10 A3006 RMK A01 T01210097  RH  086%=      5-min Rain = 0
KONS 232155Z 01011KT 12/10 A3006 RMK A01 T01230098  RH  086%=      5-min Rain = 0
KONS 232200Z 02012KT 12/10 A3006 RMK A01 T01230097  RH  086%=      5-min Rain = 0
KONS 232205Z 03012KT 12/10 A3006 RMK A01 T01210096  RH  086%=      5-min Rain = 0
KONS 232210Z 03011KT 12/10 A3005 RMK A01 T01220096  RH  086%=      5-min Rain = 0
KONS 232215Z 02013KT 12/10 A3006 RMK A01 T01220096  RH  086%=      5-min Rain = 0
KONS 232220Z 02012KT 12/10 A3006 RMK A01 T01200096  RH  087%=      5-min Rain = 0
KONS 232225Z 02010KT 12/10 A3006 RMK A01 T01200098  RH  088%=      5-min Rain = 0
KONS 232230Z 02010KT 12/10 A3006 RMK A01 T01210097  RH  087%=      5-min Rain = 0
KONS 232235Z 01011KT 12/10 A3006 RMK A01 T01220097  RH  086%=      5-min Rain = 0
KONS 232240Z 01011KT 13/10 A3006 RMK A01 T01250098  RH  085%=      5-min Rain = 0
KONS 232245Z 02011KT 13/10 A3006 RMK A01 T01250098  RH  085%=      5-min Rain = 0
KONS 232250Z 01012KT 12/10 A3005 RMK A01 T01230096  RH  085%=      5-min Rain = 0
KONS 232255Z 01011KT 12/10 A3005 RMK A01 T01230095  RH  084%=      5-min Rain = 0
KONS 232300Z 01011KT 12/10 A3005 RMK A01 T01240095  RH  084%=      5-min Rain = 0
KONS 232305Z 01010KT 13/10 A3005 RMK A01 T01250096  RH  083%=      5-min Rain = 0
KONS 232310Z 02010KT 13/10 A3005 RMK A01 T01270096  RH  083%=      5-min Rain = 0
KONS 232315Z 01011KT 13/10 A3005 RMK A01 T01270096  RH  083%=      5-min Rain = 0
KONS 232320Z 01011KT 13/10 A3005 RMK A01 T01280095  RH  082%=      5-min Rain = 0
KONS 232325Z 01012KT 13/09 A3004 RMK A01 T01290094  RH  081%=      5-min Rain = 0
KONS 232330Z 01011KT 13/10 A3004 RMK A01 T01300095  RH  080%=      5-min Rain = 0
KONS 232335Z 01011G16KT 13/10 A3004 RMK A01 T01310095  RH  080%=      5-min Rain = 0
KONS 232340Z 01012KT 13/09 A3005 RMK A01 T01310094  RH  080%=      5-min Rain = 0
KONS 232345Z 00013KT 13/09 A3005 RMK A01 T01300093  RH  079%=      5-min Rain = 0
KONS 232350Z 01011KT 13/09 A3005 RMK A01 T01300093  RH  079%=      5-min Rain = 0
KONS 232355Z 01012KT 13/09 A3005 RMK A01 T01300093  RH  080%=      5-min Rain = 0
KONS 240000Z 01012KT 13/09 A3005 RMK A01 T01300090  RH  078%=      5-min Rain = 0
KONS 240005Z 01012KT 13/09 A3005 RMK A01 T01300089  RH  077%=      5-min Rain = 0
KONS 240010Z 01012KT 13/09 A3005 RMK A01 T01300088  RH  077%=      5-min Rain = 0
KONS 240015Z 01011KT 13/09 A3005 RMK A01 T01290088  RH  077%=      5-min Rain = 0
KONS 240020Z 00013KT 13/09 A3005 RMK A01 T01290085  RH  076%=      5-min Rain = 0
KONS 240025Z 00013KT 13/08 A3005 RMK A01 T01280084  RH  076%=      5-min Rain = 0
KONS 240030Z 01012G17KT 13/09 A3005 RMK A01 T01270085  RH  077%=      5-min Rain = 0
KONS 240035Z 01011G16KT 13/08 A3005 RMK A01 T01260084  RH  077%=      5-min Rain = 0
KONS 240040Z 01011KT 13/08 A3005 RMK A01 T01250084  RH  077%=      5-min Rain = 0
KONS 240045Z 02012KT 13/08 A3005 RMK A01 T01250083  RH  077%=      5-min Rain = 0
KONS 240050Z 02011KT 12/09 A3005 RMK A01 T01240085  RH  078%=      5-min Rain = 0
KONS 240055Z 02011KT 12/09 A3005 RMK A01 T01240086  RH  079%=      5-min Rain = 0
KONS 240100Z 02011KT 12/09 A3005 RMK A01 T01240086  RH  079%=      5-min Rain = 0
KONS 240105Z 01011KT 12/09 A3004 RMK A01 T01240087  RH  079%=      5-min Rain = 0
KONS 240110Z 01010KT 12/09 A3004 RMK A01 T01230086  RH  080%=      5-min Rain = 0
KONS 240115Z 01009KT 12/09 A3004 RMK A01 T01220086  RH  080%=      5-min Rain = 0
KONS 240120Z 01008KT 12/09 A3005 RMK A01 T01220086  RH  080%=      5-min Rain = 0
KONS 240125Z 01009KT 12/09 A3005 RMK A01 T01210085  RH  080%=      5-min Rain = 0
KONS 240130Z 01008KT 12/09 A3005 RMK A01 T01200086  RH  081%=      5-min Rain = 0
KONS 240135Z 01010KT 12/09 A3004 RMK A01 T01190085  RH  081%=      5-min Rain = 0
KONS 240140Z 00011KT 12/09 A3004 RMK A01 T01190086  RH  082%=      5-min Rain = 0
KONS 240145Z 01011KT 12/09 A3004 RMK A01 T01170086  RH  083%=      5-min Rain = 0
KONS 240150Z 01009KT 12/09 A3004 RMK A01 T01150086  RH  083%=      5-min Rain = 0
KONS 240155Z 01010KT 11/09 A3004 RMK A01 T01130085  RH  084%=      5-min Rain = 0
KONS 240200Z 01010KT 11/09 A3003 RMK A01 T01120086  RH  085%=      5-min Rain = 0
KONS 240205Z 01011KT 11/09 A3003 RMK A01 T01110086  RH  086%=      5-min Rain = 0
KONS 240210Z 01009KT 11/09 A3004 RMK A01 T01090085  RH  087%=      5-min Rain = 0
KONS 240215Z 01009KT 11/09 A3004 RMK A01 T01070085  RH  088%=      5-min Rain = 0
KONS 240220Z 02009KT 11/09 A3004 RMK A01 T01060085  RH  088%=      5-min Rain = 0
KONS 240225Z 01009KT 10/08 A3004 RMK A01 T01040084  RH  089%=      5-min Rain = 0
KONS 240230Z 02008KT 10/08 A3004 RMK A01 T01020084  RH  090%=      5-min Rain = 0
KONS 240235Z 02007KT 10/08 A3005 RMK A01 T01010083  RH  090%=      5-min Rain = 0
KONS 240240Z 02007KT 10/08 A3005 RMK A01 T01000083  RH  090%=      5-min Rain = 0
KONS 240245Z 02007KT 10/08 A3005 RMK A01 T00990082  RH  090%=      5-min Rain = 0
KONS 240250Z 02007KT 10/08 A3005 RMK A01 T00970080  RH  091%=      5-min Rain = 0
KONS 240255Z 01007KT 10/08 A3005 RMK A01 T00960080  RH  091%=      5-min Rain = 0
KONS 240300Z 01007KT 10/08 A3005 RMK A01 T00950080  RH  091%=      5-min Rain = 0
KONS 240305Z 01006KT 10/08 A3005 RMK A01 T00950080  RH  092%=      5-min Rain = 0
KONS 240310Z 02005KT 10/08 A3006 RMK A01 T00950080  RH  091%=      5-min Rain = 0
KONS 240315Z 03004KT 09/08 A3007 RMK A01 T00930077  RH  091%=      5-min Rain = 0
KONS 240320Z 03003KT 09/08 A3007 RMK A01 T00920076  RH  091%=      5-min Rain = 0
KONS 240325Z 01004KT 09/08 A3006 RMK A01 T00910076  RH  092%=      5-min Rain = 0
KONS 240330Z 00005KT 09/08 A3006 RMK A01 T00910076  RH  092%=      5-min Rain = 0
KONS 240335Z 36006KT 09/08 A3006 RMK A01 T00900075  RH  092%=      5-min Rain = 0
KONS 240340Z 35007KT 09/07 A3006 RMK A01 T00880074  RH  092%=      5-min Rain = 0
KONS 240345Z 35007KT 09/07 A3005 RMK A01 T00880074  RH  092%=      5-min Rain = 0
KONS 240350Z 35007KT 09/07 A3005 RMK A01 T00870074  RH  093%=      5-min Rain = 0
KONS 240355Z 35008KT 09/07 A3004 RMK A01 T00860073  RH  093%=      5-min Rain = 0
KONS 240400Z 35007KT 09/07 A3004 RMK A01 T00860074  RH  093%=      5-min Rain = 0
KONS 240405Z 36006KT 09/08 A3005 RMK A01 T00870075  RH  093%=      5-min Rain = 0
KONS 240410Z 01004KT 09/08 A3005 RMK A01 T00880076  RH  093%=      5-min Rain = 0
KONS 240415Z 03003KT 09/08 A3007 RMK A01 T00890076  RH  093%=      5-min Rain = 0
KONS 240420Z 06003KT 09/08 A3008 RMK A01 T00880075  RH  093%=      5-min Rain = 0
KONS 240425Z 06003KT 09/08 A3008 RMK A01 T00880075  RH  093%=      5-min Rain = 0
KONS 240430Z 06004KT 09/07 A3007 RMK A01 T00870074  RH  093%=      5-min Rain = 0
KONS 240435Z 06004KT 09/07 A3007 RMK A01 T00850072  RH  093%=      5-min Rain = 0
KONS 240440Z 06005KT 08/07 A3007 RMK A01 T00840071  RH  093%=      5-min Rain = 0
KONS 240445Z 05005KT 08/07 A3007 RMK A01 T00830070  RH  093%=      5-min Rain = 0
KONS 240450Z 04005KT 08/07 A3006 RMK A01 T00830070  RH  093%=      5-min Rain = 0
KONS 240455Z 03005KT 08/07 A3006 RMK A01 T00820070  RH  093%=      5-min Rain = 0

Page generated in 0.0156 seconds.